Maersk Iowa — KABL — position and weather

sailwx.info

Track history (hours):
 
Tides and Currents Weather Stations Pressure Air Temp Water Temp Dewpoint Dewpoint Depression Visibility Wind Speed Wind Dir Waves Ship Positions

Maersk Iowa

Owner: Maersk Line, Limited, Norfolk, VA. More information available from US FCC via Universal Licensing System and Coast Guard Vessel Documentation Center.

Last reported at 2017-Dec-11 16:55 UTC. Time now 2017-Dec-14 14:57 UTC.
Position N 51°54' E 003°29'.

Length 292 m; draft 11.8 m.

Type: Ship (hazmat cat A). MMSI: 367606000.

Date/timePositionNaut miles runAvg speedWind from/ knotsBaromVisibWave heightAir tempDewpointWater temp
2017-Dec-11 16:55N 51°54' E 003°29'0 0.0
2017-Dec-11 16:25N 51°54' E 003°29'0 0.1
2017-Dec-11 15:58N 51°54' E 003°29'0 0.0
2017-Dec-11 15:28N 51°54' E 003°29'0 0.0
2017-Dec-11 14:55N 51°54' E 003°29'0 0.1
2017-Dec-11 14:28N 51°54' E 003°29'0 0.8
2017-Dec-11 14:00N 51°54' E 003°28'9 8.3
2017-Dec-11 12:58N 51°49' E 003°17'1711.2
2017-Dec-11 11:26N 51°33' E 003°08'714.1
2017-Dec-11 10:57N 51°28' E 003°00'511.1
2017-Dec-11 10:30N 51°24' E 003°05'917.3
2017-Dec-11 10:01N 51°24' E 003°19'917.3
2017-Dec-11 09:30N 51°26' E 003°33'510.5
2017-Dec-11 09:01N 51°26' E 003°41'713.8
2017-Dec-11 08:31N 51°21' E 003°49'612.8
2017-Dec-11 08:00N 51°24' E 003°57'2112.3
2017-Dec-11 08:00N 51°24' E 004°00'2 3.3 170 / 15980.6 5.4 3.0 0.3 7.0
2017-Dec-11 07:30N 51°23' E 004°02'611.2
2017-Dec-11 07:00N 51°24' E 004°11'5 9.8
2017-Dec-11 06:31N 51°20' E 004°16'3 6.1
2017-Dec-11 06:00N 51°17' E 004°15'0 0.3
2017-Dec-11 05:31N 51°17' E 004°15'0 0.0
2017-Dec-11 04:59N 51°17' E 004°15'0 0.0
2017-Dec-11 04:29N 51°17' E 004°15'0 0.0
2017-Dec-11 03:59N 51°17' E 004°15'0 0.0
2017-Dec-11 03:29N 51°17' E 004°15'0 0.0
2017-Dec-11 02:59N 51°17' E 004°15'0 0.0
2017-Dec-11 02:29N 51°17' E 004°15'0 0.0
2017-Dec-11 01:59N 51°17' E 004°15'0 0.0
2017-Dec-11 01:29N 51°17' E 004°15'0 0.0
2017-Dec-11 00:59N 51°17' E 004°15'0 0.0
2017-Dec-11 00:29N 51°17' E 004°15'0 0.0
2017-Dec-10 23:59N 51°17' E 004°15'0 0.0
2017-Dec-10 23:29N 51°17' E 004°15'0 0.0
2017-Dec-10 22:59N 51°17' E 004°15'0 0.0
2017-Dec-10 22:29N 51°17' E 004°15'0 0.0
2017-Dec-10 21:56N 51°17' E 004°15'0 0.0
2017-Dec-10 21:29N 51°17' E 004°15'0 0.0
2017-Dec-10 20:59N 51°17' E 004°15'0 0.0
2017-Dec-10 20:29N 51°17' E 004°15'0 0.0
2017-Dec-10 19:59N 51°17' E 004°15'0 0.0
2017-Dec-10 19:29N 51°17' E 004°15'0 0.0
2017-Dec-10 18:59N 51°17' E 004°15'0 0.0
2017-Dec-10 18:29N 51°17' E 004°15'0 0.0
2017-Dec-10 17:59N 51°17' E 004°15'0 0.0
2017-Dec-10 17:29N 51°17' E 004°15'0 0.0
2017-Dec-10 16:59N 51°17' E 004°15'0 0.0
2017-Dec-10 16:29N 51°17' E 004°15'0 0.0
2017-Dec-10 15:59N 51°17' E 004°15'0 0.0
2017-Dec-10 15:26N 51°17' E 004°15'0 0.0
2017-Dec-10 14:59N 51°17' E 004°15'0 0.0
2017-Dec-10 14:26N 51°17' E 004°15'0 0.0
2017-Dec-10 13:59N 51°17' E 004°15'0 0.0
2017-Dec-10 13:29N 51°17' E 004°15'0 0.0
2017-Dec-10 12:59N 51°17' E 004°15'0 0.5
2017-Dec-10 12:30N 51°17' E 004°15'1 2.3
2017-Dec-10 12:00N 51°18' E 004°16'2 3.7
2017-Dec-10 11:30N 51°20' E 004°16'5 9.7
2017-Dec-10 11:00N 51°24' E 004°11'510.6
2017-Dec-10 10:30N 51°23' E 004°03'4 8.6
2017-Dec-10 10:00N 51°26' E 003°58'611.4
2017-Dec-10 09:30N 51°21' E 003°53'611.3
2017-Dec-10 09:00N 51°22' E 003°44'510.7
2017-Dec-10 08:30N 51°26' E 003°38'5 9.5
2017-Dec-10 08:00N 51°25' E 003°30'611.8
2017-Dec-10 07:30N 51°24' E 003°21'611.0
2017-Dec-10 07:00N 51°24' E 003°12'510.1
2017-Dec-10 06:30N 51°24' E 003°04'611.6
2017-Dec-10 06:00N 51°22' E 002°55'610.9
2017-Dec-10 05:26N 51°22' E 002°45'7 9.4
2017-Dec-10 04:40N 51°22' E 002°34'310.0
2017-Dec-10 04:24N 51°22' E 002°29'410.0
2017-Dec-10 04:00N 51°20' E 002°24'4 8.2
2017-Dec-10 03:30N 51°18' E 002°18'816.3
2017-Dec-10 03:00N 51°15' E 002°07'1019.3
2017-Dec-10 02:30N 51°10' E 001°53'1019.2
2017-Dec-10 02:00N 51°06' E 001°40'918.8
2017-Dec-10 01:31N 50°59' E 001°30'918.4
2017-Dec-10 01:00N 50°50' E 001°24'918.3
2017-Dec-10 00:30N 50°41' E 001°19'918.6
2017-Dec-09 23:59N 50°35' E 001°08'1018.4
2017-Dec-09 23:27N 50°30' E 000°54'818.8
2017-Dec-09 23:00N 50°27' E 000°42'1018.9
2017-Dec-09 22:28N 50°24' E 000°27'1019.8
2017-Dec-09 21:58N 50°22' E 000°11'919.7
2017-Dec-09 21:30N 50°20' W 000°02'1019.3
2017-Dec-09 20:58N 50°17' W 000°18'919.1
2017-Dec-09 20:30N 50°15' W 000°32'7717.4
2017-Dec-09 16:05N 49°55' W 002°27'117.8
2017-Dec-09 16:00N 49°54' W 002°30'917.7
2017-Dec-09 15:30N 49°52' W 002°43'816.8
2017-Dec-09 15:00N 49°50' W 002°55'917.1
2017-Dec-09 14:30N 49°47' W 003°08'1617.2
2017-Dec-09 13:34N 49°44' W 003°32'117.2
2017-Dec-09 13:30N 49°44' W 003°34'917.2
2017-Dec-09 12:57N 49°42' W 003°48'1617.0
2017-Dec-09 12:00N 49°36' W 004°12'15212.7 350 / 41018.410.8 9.0 4.513.0
2017-Dec-09 00:00N 49°30' W 008°06'14412.0 330 / 101027.910.8 10.0 5.712.0
2017-Dec-08 12:00N 49°42' W 011°48'10918.1 350 / 101031.827.0 11.0 6.814.0
2017-Dec-08 06:00N 49°42' W 014°36'12020.1 070 / 121031.710.8 10.0 5.714.0
2017-Dec-08 00:00N 49°42' W 017°42'10517.5 070 / 181031.310.8 11.0 1.514.0
2017-Dec-07 18:00N 49°36' W 020°24'33718.7 080 / 201029.010.8 11.0 4.312.0
2017-Dec-07 00:00N 48°48' W 028°54'44018.3 030 / 201022.4 9.0 6.914.1
2017-Dec-06 00:00N 47°00' W 039°30'35119.5 020 / 201009.7 8.0 3.319.2
2017-Dec-05 06:00N 44°48' W 047°18'11719.6 030 / 201010.0 1.1 9.0-10.3 9.0
2017-Dec-05 00:00N 44°00' W 049°48'12420.7 060 / 301011.8 7.0 4.7 7.0
2017-Dec-04 18:00N 43°00' W 052°18'12320.5 020 / 221012.4 2.2 5.0-0.310.0
2017-Dec-04 12:00N 42°06' W 054°48'12320.5 030 / 251014.710.8 8.0 3.317.0
2017-Dec-04 06:00N 41°06' W 057°12'10317.1 030 / 151014.727.0 13.0 6.819.0
2017-Dec-04 00:00N 40°18' W 059°12'14624.4 060 / 221015.810.8 14.010.221.0
2017-Dec-03 18:00N 39°30' W 062°12'12220.3 360 / 201015.127.0 16.010.424.0
2017-Dec-03 12:00N 38°42' W 064°36'13121.9 030 / 201018.310.8 17.0 7.025.0
2017-Dec-03 06:00N 37°54' W 067°12'25321.1 360 / 151020.910.8 15.0 9.223.0
2017-Dec-02 18:00N 36°30' W 072°12'17819.3 090 / 211021.627.0 17.0 7.026.0
2017-Dec-02 08:46N 36°52' W 075°53'2 9.0
2017-Dec-02 08:30N 36°54' W 075°55'5 9.7
2017-Dec-02 07:58N 36°57' W 076°00'714.8
2017-Dec-02 07:30N 36°59' W 076°08'913.2
2017-Dec-02 06:47N 36°58' W 076°20'3 9.1
2017-Dec-02 06:30N 36°55' W 076°20'3 5.7
2017-Dec-02 06:01N 36°52' W 076°21'0 0.2
2017-Dec-02 05:29N 36°53' W 076°21'0 0.0
2017-Dec-02 04:59N 36°53' W 076°21'0 0.0
2017-Dec-02 04:29N 36°53' W 076°21'0 0.0
2017-Dec-02 03:59N 36°53' W 076°21'0 0.0
2017-Dec-02 03:29N 36°53' W 076°21'0 0.0
2017-Dec-02 02:59N 36°53' W 076°21'0 0.0
2017-Dec-02 02:29N 36°53' W 076°21'0 0.0
2017-Dec-02 01:59N 36°53' W 076°21'0 0.0
2017-Dec-02 01:26N 36°53' W 076°21'0 0.0
2017-Dec-02 00:59N 36°53' W 076°21'0 0.0
2017-Dec-02 00:29N 36°53' W 076°21'0 0.0
2017-Dec-01 23:59N 36°53' W 076°21'0 0.0
2017-Dec-01 23:29N 36°53' W 076°21'0 0.0
2017-Dec-01 22:59N 36°53' W 076°21'0 0.0
2017-Dec-01 22:29N 36°53' W 076°21'0 0.0
2017-Dec-01 21:59N 36°53' W 076°21'0 0.0
2017-Dec-01 21:29N 36°53' W 076°21'0 0.0
2017-Dec-01 20:59N 36°53' W 076°21'0 0.0
2017-Dec-01 20:29N 36°53' W 076°21'0 0.0
2017-Dec-01 19:59N 36°53' W 076°21'0 0.0
2017-Dec-01 19:29N 36°53' W 076°21'0 0.0
2017-Dec-01 18:59N 36°53' W 076°21'0 0.0
2017-Dec-01 18:29N 36°53' W 076°21'0 0.0
2017-Dec-01 17:59N 36°53' W 076°21'0 0.0
2017-Dec-01 17:26N 36°53' W 076°21'  
Track history (hours):
 
Tides and Currents Weather Stations Pressure Air Temp Water Temp Dewpoint Dewpoint Depression Visibility Wind Speed Wind Dir Waves Ship Positions

Maersk Iowa

Owner: Maersk Line, Limited, Norfolk, VA. More information available from US FCC via Universal Licensing System and Coast Guard Vessel Documentation Center.

Last reported at 2017-Dec-11 16:55 UTC. Time now 2017-Dec-14 14:57 UTC.
Position N 51°54' E 003°29'.

Length 292 m; draft 11.8 m.

Type: Ship (hazmat cat A). MMSI: 367606000.

Date/timePositionNaut miles runAvg speedWind from/ knotsBaromVisibWave heightAir tempDewpointWater temp
2017-Dec-11 16:55N 51°54' E 003°29'0 0.0
2017-Dec-11 16:25N 51°54' E 003°29'0 0.1
2017-Dec-11 15:58N 51°54' E 003°29'0 0.0
2017-Dec-11 15:28N 51°54' E 003°29'0 0.0
2017-Dec-11 14:55N 51°54' E 003°29'0 0.1
2017-Dec-11 14:28N 51°54' E 003°29'0 0.8
2017-Dec-11 14:00N 51°54' E 003°28'9 8.3
2017-Dec-11 12:58N 51°49' E 003°17'1711.2
2017-Dec-11 11:26N 51°33' E 003°08'714.1
2017-Dec-11 10:57N 51°28' E 003°00'511.1
2017-Dec-11 10:30N 51°24' E 003°05'917.3
2017-Dec-11 10:01N 51°24' E 003°19'917.3
2017-Dec-11 09:30N 51°26' E 003°33'510.5
2017-Dec-11 09:01N 51°26' E 003°41'713.8
2017-Dec-11 08:31N 51°21' E 003°49'612.8
2017-Dec-11 08:00N 51°24' E 003°57'2112.3
2017-Dec-11 08:00N 51°24' E 004°00'2 3.3 170 / 15980.6 5.4 3.0 0.3 7.0
2017-Dec-11 07:30N 51°23' E 004°02'611.2
2017-Dec-11 07:00N 51°24' E 004°11'5 9.8
2017-Dec-11 06:31N 51°20' E 004°16'3 6.1
2017-Dec-11 06:00N 51°17' E 004°15'0 0.3
2017-Dec-11 05:31N 51°17' E 004°15'0 0.0
2017-Dec-11 04:59N 51°17' E 004°15'0 0.0
2017-Dec-11 04:29N 51°17' E 004°15'0 0.0
2017-Dec-11 03:59N 51°17' E 004°15'0 0.0
2017-Dec-11 03:29N 51°17' E 004°15'0 0.0
2017-Dec-11 02:59N 51°17' E 004°15'0 0.0
2017-Dec-11 02:29N 51°17' E 004°15'0 0.0
2017-Dec-11 01:59N 51°17' E 004°15'0 0.0
2017-Dec-11 01:29N 51°17' E 004°15'0 0.0
2017-Dec-11 00:59N 51°17' E 004°15'0 0.0
2017-Dec-11 00:29N 51°17' E 004°15'0 0.0
2017-Dec-10 23:59N 51°17' E 004°15'0 0.0
2017-Dec-10 23:29N 51°17' E 004°15'0 0.0
2017-Dec-10 22:59N 51°17' E 004°15'0 0.0
2017-Dec-10 22:29N 51°17' E 004°15'0 0.0
2017-Dec-10 21:56N 51°17' E 004°15'0 0.0
2017-Dec-10 21:29N 51°17' E 004°15'0 0.0
2017-Dec-10 20:59N 51°17' E 004°15'0 0.0
2017-Dec-10 20:29N 51°17' E 004°15'0 0.0
2017-Dec-10 19:59N 51°17' E 004°15'0 0.0
2017-Dec-10 19:29N 51°17' E 004°15'0 0.0
2017-Dec-10 18:59N 51°17' E 004°15'0 0.0
2017-Dec-10 18:29N 51°17' E 004°15'0 0.0
2017-Dec-10 17:59N 51°17' E 004°15'0 0.0
2017-Dec-10 17:29N 51°17' E 004°15'0 0.0
2017-Dec-10 16:59N 51°17' E 004°15'0 0.0
2017-Dec-10 16:29N 51°17' E 004°15'0 0.0
2017-Dec-10 15:59N 51°17' E 004°15'0 0.0
2017-Dec-10 15:26N 51°17' E 004°15'0 0.0
2017-Dec-10 14:59N 51°17' E 004°15'0 0.0
2017-Dec-10 14:26N 51°17' E 004°15'0 0.0
2017-Dec-10 13:59N 51°17' E 004°15'0 0.0
2017-Dec-10 13:29N 51°17' E 004°15'0 0.0
2017-Dec-10 12:59N 51°17' E 004°15'0 0.5
2017-Dec-10 12:30N 51°17' E 004°15'1 2.3
2017-Dec-10 12:00N 51°18' E 004°16'2 3.7
2017-Dec-10 11:30N 51°20' E 004°16'5 9.7
2017-Dec-10 11:00N 51°24' E 004°11'510.6
2017-Dec-10 10:30N 51°23' E 004°03'4 8.6
2017-Dec-10 10:00N 51°26' E 003°58'611.4
2017-Dec-10 09:30N 51°21' E 003°53'611.3
2017-Dec-10 09:00N 51°22' E 003°44'510.7
2017-Dec-10 08:30N 51°26' E 003°38'5 9.5
2017-Dec-10 08:00N 51°25' E 003°30'611.8
2017-Dec-10 07:30N 51°24' E 003°21'611.0
2017-Dec-10 07:00N 51°24' E 003°12'510.1
2017-Dec-10 06:30N 51°24' E 003°04'611.6
2017-Dec-10 06:00N 51°22' E 002°55'610.9
2017-Dec-10 05:26N 51°22' E 002°45'7 9.4
2017-Dec-10 04:40N 51°22' E 002°34'310.0
2017-Dec-10 04:24N 51°22' E 002°29'410.0
2017-Dec-10 04:00N 51°20' E 002°24'4 8.2
2017-Dec-10 03:30N 51°18' E 002°18'816.3
2017-Dec-10 03:00N 51°15' E 002°07'1019.3
2017-Dec-10 02:30N 51°10' E 001°53'1019.2
2017-Dec-10 02:00N 51°06' E 001°40'918.8
2017-Dec-10 01:31N 50°59' E 001°30'918.4
2017-Dec-10 01:00N 50°50' E 001°24'918.3
2017-Dec-10 00:30N 50°41' E 001°19'918.6
2017-Dec-09 23:59N 50°35' E 001°08'1018.4
2017-Dec-09 23:27N 50°30' E 000°54'818.8
2017-Dec-09 23:00N 50°27' E 000°42'1018.9
2017-Dec-09 22:28N 50°24' E 000°27'1019.8
2017-Dec-09 21:58N 50°22' E 000°11'919.7
2017-Dec-09 21:30N 50°20' W 000°02'1019.3
2017-Dec-09 20:58N 50°17' W 000°18'919.1
2017-Dec-09 20:30N 50°15' W 000°32'7717.4
2017-Dec-09 16:05N 49°55' W 002°27'117.8
2017-Dec-09 16:00N 49°54' W 002°30'917.7
2017-Dec-09 15:30N 49°52' W 002°43'816.8
2017-Dec-09 15:00N 49°50' W 002°55'917.1
2017-Dec-09 14:30N 49°47' W 003°08'1617.2
2017-Dec-09 13:34N 49°44' W 003°32'117.2
2017-Dec-09 13:30N 49°44' W 003°34'917.2
2017-Dec-09 12:57N 49°42' W 003°48'1617.0
2017-Dec-09 12:00N 49°36' W 004°12'15212.7 350 / 41018.410.8 9.0 4.513.0
2017-Dec-09 00:00N 49°30' W 008°06'14412.0 330 / 101027.910.8 10.0 5.712.0
2017-Dec-08 12:00N 49°42' W 011°48'10918.1 350 / 101031.827.0 11.0 6.814.0
2017-Dec-08 06:00N 49°42' W 014°36'12020.1 070 / 121031.710.8 10.0 5.714.0
2017-Dec-08 00:00N 49°42' W 017°42'10517.5 070 / 181031.310.8 11.0 1.514.0
2017-Dec-07 18:00N 49°36' W 020°24'33718.7 080 / 201029.010.8 11.0 4.312.0
2017-Dec-07 00:00N 48°48' W 028°54'44018.3 030 / 201022.4 9.0 6.914.1
2017-Dec-06 00:00N 47°00' W 039°30'35119.5 020 / 201009.7 8.0 3.319.2
2017-Dec-05 06:00N 44°48' W 047°18'11719.6 030 / 201010.0 1.1 9.0-10.3 9.0
2017-Dec-05 00:00N 44°00' W 049°48'12420.7 060 / 301011.8 7.0 4.7 7.0
2017-Dec-04 18:00N 43°00' W 052°18'12320.5 020 / 221012.4 2.2 5.0-0.310.0
2017-Dec-04 12:00N 42°06' W 054°48'12320.5 030 / 251014.710.8 8.0 3.317.0
2017-Dec-04 06:00N 41°06' W 057°12'10317.1 030 / 151014.727.0 13.0 6.819.0
2017-Dec-04 00:00N 40°18' W 059°12'14624.4 060 / 221015.810.8 14.010.221.0
2017-Dec-03 18:00N 39°30' W 062°12'12220.3 360 / 201015.127.0 16.010.424.0
2017-Dec-03 12:00N 38°42' W 064°36'13121.9 030 / 201018.310.8 17.0 7.025.0
2017-Dec-03 06:00N 37°54' W 067°12'25321.1 360 / 151020.910.8 15.0 9.223.0
2017-Dec-02 18:00N 36°30' W 072°12'17819.3 090 / 211021.627.0 17.0 7.026.0
2017-Dec-02 08:46N 36°52' W 075°53'2 9.0
2017-Dec-02 08:30N 36°54' W 075°55'5 9.7
2017-Dec-02 07:58N 36°57' W 076°00'714.8
2017-Dec-02 07:30N 36°59' W 076°08'913.2
2017-Dec-02 06:47N 36°58' W 076°20'3 9.1
2017-Dec-02 06:30N 36°55' W 076°20'3 5.7
2017-Dec-02 06:01N 36°52' W 076°21'0 0.2
2017-Dec-02 05:29N 36°53' W 076°21'0 0.0
2017-Dec-02 04:59N 36°53' W 076°21'0 0.0
2017-Dec-02 04:29N 36°53' W 076°21'0 0.0
2017-Dec-02 03:59N 36°53' W 076°21'0 0.0
2017-Dec-02 03:29N 36°53' W 076°21'0 0.0
2017-Dec-02 02:59N 36°53' W 076°21'0 0.0
2017-Dec-02 02:29N 36°53' W 076°21'0 0.0
2017-Dec-02 01:59N 36°53' W 076°21'0 0.0
2017-Dec-02 01:26N 36°53' W 076°21'0 0.0
2017-Dec-02 00:59N 36°53' W 076°21'0 0.0
2017-Dec-02 00:29N 36°53' W 076°21'0 0.0
2017-Dec-01 23:59N 36°53' W 076°21'0 0.0
2017-Dec-01 23:29N 36°53' W 076°21'0 0.0
2017-Dec-01 22:59N 36°53' W 076°21'0 0.0
2017-Dec-01 22:29N 36°53' W 076°21'0 0.0
2017-Dec-01 21:59N 36°53' W 076°21'0 0.0
2017-Dec-01 21:29N 36°53' W 076°21'0 0.0
2017-Dec-01 20:59N 36°53' W 076°21'0 0.0
2017-Dec-01 20:29N 36°53' W 076°21'0 0.0
2017-Dec-01 19:59N 36°53' W 076°21'0 0.0
2017-Dec-01 19:29N 36°53' W 076°21'0 0.0
2017-Dec-01 18:59N 36°53' W 076°21'0 0.0
2017-Dec-01 18:29N 36°53' W 076°21'0 0.0
2017-Dec-01 17:59N 36°53' W 076°21'0 0.0
2017-Dec-01 17:26N 36°53' W 076°21'  

Dump ship's entire track history